Time;durP1;ratioP1;P1;durP2;ratioP2;P2;SDS_P1;SDS_P2;PMS_P1;PMS_P2;Temp;Humidity;BMP_temperature;BMP_pressure;BME280_temperature;BME280_humidity;BME280_pressure;Samples;Min_cycle;Max_cycle;Signal;HPM_P1;HPM_P2
2023/08/25 00:01:39;;;;;;;2.50;2.30;;;;;;;25.73;60.46;97134.66;5135779;27;20179;-75
2023/08/25 00:04:04;;;;;;;2.50;2.30;;;;;;;25.70;60.33;97135.97;5136268;27;20176;-75
2023/08/25 00:06:30;;;;;;;5.20;2.87;;;;;;;25.71;60.65;97139.47;5125830;27;20294;-74
2023/08/25 00:08:55;;;;;;;4.80;3.10;;;;;;;25.75;60.66;97145.94;5148412;27;20191;-75
2023/08/25 00:11:21;;;;;;;4.67;2.50;;;;;;;25.75;59.85;97146.78;5145082;27;20842;-74
2023/08/25 00:13:46;;;;;;;6.90;2.70;;;;;;;25.75;59.88;97146.78;5143457;27;20914;-73
2023/08/25 00:16:12;;;;;;;3.20;2.70;;;;;;;25.77;60.05;97146.50;5122818;27;20196;-75
2023/08/25 00:18:38;;;;;;;3.00;2.13;;;;;;;25.77;59.56;97152.69;5138361;27;20574;-75
2023/08/25 00:21:04;;;;;;;5.70;3.00;;;;;;;25.69;59.76;97155.03;5132621;27;20720;-76
2023/08/25 00:23:30;;;;;;;4.53;3.27;;;;;;;25.74;59.50;97147.84;5146038;27;20179;-75
2023/08/25 00:25:56;;;;;;;2.37;2.13;;;;;;;25.76;59.70;97144.88;5133013;27;20950;-73
2023/08/25 00:28:21;;;;;;;5.17;2.40;;;;;;;25.76;59.62;97142.22;5130607;27;20454;-74
2023/08/25 00:30:48;;;;;;;3.63;2.50;;;;;;;25.75;59.38;97132.53;5111768;27;20180;-72
2023/08/25 00:33:14;;;;;;;4.33;2.67;;;;;;;25.76;59.24;97132.31;5123200;27;20647;-75
2023/08/25 00:35:42;;;;;;;3.30;2.40;;;;;;;25.76;59.29;97128.78;5135077;27;20458;-74
2023/08/25 00:38:08;;;;;;;7.30;2.60;;;;;;;25.78;59.07;97123.97;5141942;27;20194;-73
2023/08/25 00:40:35;;;;;;;3.10;2.70;;;;;;;25.77;58.76;97111.63;5136704;27;20819;-75
2023/08/25 00:43:01;;;;;;;3.87;2.00;;;;;;;25.77;58.54;97108.94;5140281;27;20190;-74
2023/08/25 00:45:26;;;;;;;3.30;2.40;;;;;;;25.74;59.89;97104.91;5130672;27;20438;-74
2023/08/25 00:47:52;;;;;;;4.00;2.60;;;;;;;25.61;59.75;97116.03;5130281;27;20222;-74
2023/08/25 00:50:17;;;;;;;4.10;2.23;;;;;;;25.60;60.20;97103.69;5139626;27;20184;-76
2023/08/25 00:52:43;;;;;;;4.53;2.20;;;;;;;25.63;60.31;97105.88;5112618;27;20176;-75
2023/08/25 00:55:09;;;;;;;3.53;2.10;;;;;;;25.64;59.84;97098.59;5147123;27;20699;-74
2023/08/25 00:57:35;;;;;;;2.47;2.20;;;;;;;25.63;59.82;97091.63;5103921;27;20172;-75
2023/08/25 01:00:01;;;;;;;4.40;2.50;;;;;;;25.64;60.09;97103.97;5138430;27;20581;-74
2023/08/25 01:02:26;;;;;;;6.87;2.40;;;;;;;25.66;60.22;97107.22;5132001;27;20429;-74
2023/08/25 01:04:52;;;;;;;6.03;2.63;;;;;;;25.63;60.79;97099.66;5138659;27;20180;-73
2023/08/25 01:07:17;;;;;;;2.97;2.37;;;;;;;25.61;60.47;97105.31;5139704;27;20832;-74
2023/08/25 01:09:43;;;;;;;3.10;2.00;;;;;;;25.58;60.53;97101.22;5138974;27;20267;-76
2023/08/25 01:12:17;;;;;;;3.47;2.40;;;;;;;25.59;60.67;97099.38;5147259;27;20184;-75
2023/08/25 01:14:54;;;;;;;2.70;2.10;;;;;;;25.59;60.60;97102.84;5110554;27;20206;-74
2023/08/25 01:17:54;;;;;;;3.33;2.30;;;;;;;25.62;61.02;97098.88;5122390;27;20772;-75
2023/08/25 01:20:22;;;;;;;6.67;2.97;;;;;;;25.63;60.73;97099.66;5115496;27;20417;-75
2023/08/25 01:22:56;;;;;;;3.40;2.20;;;;;;;25.63;60.91;97100.50;5126804;27;20426;-76
2023/08/25 01:25:29;;;;;;;2.67;2.20;;;;;;;25.64;60.56;97095.94;5121568;27;20461;-75
2023/08/25 01:27:55;;;;;;;2.83;2.40;;;;;;;25.67;60.89;97108.84;5121142;27;20410;-74
2023/08/25 01:30:23;;;;;;;5.10;2.70;;;;;;;25.66;60.79;97096.50;5138332;27;20522;-75
2023/08/25 01:32:51;;;;;;;7.43;2.73;;;;;;;25.64;61.27;97103.97;5127630;27;20914;-76
2023/08/25 01:35:17;;;;;;;6.80;2.90;;;;;;;25.67;60.98;97108.84;5134145;27;20821;-73
2023/08/25 01:37:48;;;;;;;4.37;2.80;;;;;;;25.66;61.46;97104.53;5118104;27;20431;-75
2023/08/25 01:40:34;;;;;;;3.17;2.87;;;;;;;25.64;61.47;97098.59;5130931;27;20529;-75
2023/08/25 01:43:00;;;;;;;6.43;2.57;;;;;;;25.65;60.83;97101.03;5135610;27;20425;-73
2023/08/25 01:45:26;;;;;;;4.23;2.50;;;;;;;25.63;60.20;97107.72;5133915;27;20452;-74
2023/08/25 01:47:52;;;;;;;3.23;2.50;;;;;;;25.57;59.17;97101.50;5124360;27;20245;-75
2023/08/25 01:50:19;;;;;;;2.50;2.30;;;;;;;25.57;58.37;97099.63;5094341;27;20176;-75
2023/08/25 01:52:44;;;;;;;2.67;2.10;;;;;;;25.56;58.60;97103.38;5103294;28;20475;-75
2023/08/25 01:55:10;;;;;;;4.03;2.50;;;;;;;25.54;57.80;97089.41;5103181;27;20452;-73
2023/08/25 01:57:35;;;;;;;2.60;2.23;;;;;;;25.54;57.79;97096.63;5111591;28;20184;-73
2023/08/25 02:00:01;;;;;;;3.93;2.30;;;;;;;25.55;58.38;97091.03;5129813;27;20190;-73
2023/08/25 02:02:26;;;;;;;4.43;2.63;;;;;;;25.59;58.77;97086.75;5139053;27;20262;-73
2023/08/25 02:04:52;;;;;;;4.60;2.40;;;;;;;25.59;58.91;97092.13;5127711;27;20260;-74
2023/08/25 02:07:17;;;;;;;4.27;2.17;;;;;;;25.56;58.37;97095.31;5144950;27;20208;-74
2023/08/25 02:09:42;;;;;;;2.27;2.07;;;;;;;25.55;57.82;97091.03;5139857;27;20267;-72
2023/08/25 02:12:08;;;;;;;4.83;2.40;;;;;;;25.56;57.98;97092.66;5133606;27;20180;-75
2023/08/25 02:14:34;;;;;;;4.80;2.57;;;;;;;25.55;58.63;97077.59;5139134;27;20191;-75
2023/08/25 02:16:59;;;;;;;6.07;2.27;;;;;;;25.60;58.72;97076.84;5152491;27;20288;-73
2023/08/25 02:19:25;;;;;;;8.60;2.77;;;;;;;25.55;58.51;97077.59;5145938;27;20559;-75
2023/08/25 02:21:50;;;;;;;2.90;2.47;;;;;;;25.53;58.77;97077.03;5138681;27;20297;-75
2023/08/25 02:24:15;;;;;;;5.40;2.60;;;;;;;25.50;58.95;97082.91;5133485;27;20267;-75
2023/08/25 02:26:42;;;;;;;4.67;2.60;;;;;;;25.49;59.38;97081.28;5133526;27;20200;-75
2023/08/25 02:29:09;;;;;;;3.03;2.43;;;;;;;25.51;59.40;97086.41;5130120;27;20712;-74
2023/08/25 02:31:34;;;;;;;5.00;2.30;;;;;;;25.50;59.11;97080.22;5130825;27;20785;-76
2023/08/25 02:34:00;;;;;;;2.43;2.13;;;;;;;25.52;58.65;97070.06;5138516;27;20460;-73
2023/08/25 02:36:25;;;;;;;6.97;2.27;;;;;;;25.49;58.88;97064.41;5138804;27;20200;-75
2023/08/25 02:38:51;;;;;;;4.63;2.33;;;;;;;25.48;58.46;97065.44;5115397;27;20211;-75
2023/08/25 02:41:16;;;;;;;3.20;2.07;;;;;;;25.50;58.88;97066.00;5133292;27;20184;-74
2023/08/25 02:43:42;;;;;;;3.70;2.50;;;;;;;25.46;58.81;97060.31;5148296;27;20199;-76
2023/08/25 02:46:07;;;;;;;3.40;2.23;;;;;;;25.44;58.85;97057.91;5114309;27;20759;-76
2023/08/25 02:48:33;;;;;;;4.93;1.90;;;;;;;25.42;59.00;97061.91;5133169;27;20592;-74
2023/08/25 02:50:58;;;;;;;4.00;2.10;;;;;;;25.41;58.63;97066.44;5132896;27;20279;-74
2023/08/25 02:53:23;;;;;;;4.17;2.33;;;;;;;25.36;59.20;97060.19;5141375;27;20211;-74
2023/08/25 02:55:49;;;;;;;4.47;2.10;;;;;;;25.29;58.82;97058.53;5134022;27;20200;-74
2023/08/25 02:58:14;;;;;;;2.40;2.17;;;;;;;25.30;58.87;97052.09;5132123;27;20700;-73
2023/08/25 03:00:40;;;;;;;3.90;2.50;;;;;;;25.30;59.26;97044.06;5129295;27;20256;-75
2023/08/25 03:03:05;;;;;;;7.93;2.23;;;;;;;25.27;58.51;97047.22;5130687;27;20272;-74
2023/08/25 03:05:31;;;;;;;4.93;2.87;;;;;;;25.27;58.94;97044.56;5136342;27;20217;-74
2023/08/25 03:07:56;;;;;;;7.33;2.70;;;;;;;25.29;59.45;97041.59;5144677;27;20187;-76
2023/08/25 03:10:22;;;;;;;6.00;2.50;;;;;;;25.26;59.08;97048.28;5133500;27;20660;-75
2023/08/25 03:12:48;;;;;;;4.40;2.77;;;;;;;25.23;59.39;97050.66;5130142;27;20175;-74
2023/08/25 03:15:13;;;;;;;4.67;2.43;;;;;;;25.17;59.38;97033.72;5127014;27;20550;-74
2023/08/25 03:17:41;;;;;;;5.30;2.83;;;;;;;25.21;59.35;97036.69;5143776;27;20267;-77
2023/08/25 03:20:07;;;;;;;3.77;2.10;;;;;;;25.19;59.44;97033.47;5135287;27;20189;-73
2023/08/25 03:22:33;;;;;;;6.20;2.70;;;;;;;25.16;58.93;97029.41;5115963;27;20434;-75
2023/08/25 03:24:58;;;;;;;6.10;2.57;;;;;;;25.14;59.08;97031.53;5135001;27;20477;-73
2023/08/25 03:27:24;;;;;;;5.03;2.70;;;;;;;25.15;58.90;97019.75;5123829;27;20192;-76
2023/08/25 03:29:49;;;;;;;3.13;2.40;;;;;;;25.17;58.85;97008.75;5130561;27;20192;-73
2023/08/25 03:32:15;;;;;;;7.23;2.70;;;;;;;25.19;58.38;97010.16;5132318;27;20183;-74
2023/08/25 03:34:40;;;;;;;2.20;2.00;;;;;;;25.10;58.88;97011.63;5135464;27;20203;-74
2023/08/25 03:37:07;;;;;;;4.30;2.10;;;;;;;25.10;58.86;97009.78;5128039;27;20181;-76
2023/08/25 03:39:32;;;;;;;6.37;2.37;;;;;;;25.12;58.86;97010.34;5104808;27;20184;-75
2023/08/25 03:41:58;;;;;;;7.10;2.70;;;;;;;25.14;58.53;96996.69;5138396;27;20842;-75
2023/08/25 03:44:23;;;;;;;3.00;2.77;;;;;;;25.14;58.71;96996.69;5114199;27;20190;-74
2023/08/25 03:46:49;;;;;;;3.00;2.40;;;;;;;25.13;58.15;96997.75;5098806;27;20573;-75
2023/08/25 03:49:14;;;;;;;3.33;2.40;;;;;;;25.15;58.74;96995.63;5121568;27;20181;-74
2023/08/25 03:51:39;;;;;;;7.17;2.77;;;;;;;25.13;58.72;96989.69;5132372;27;20553;-74
2023/08/25 03:54:06;;;;;;;5.50;2.90;;;;;;;25.13;58.38;96987.03;5139777;27;20280;-73
2023/08/25 03:56:32;;;;;;;9.30;3.10;;;;;;;25.13;58.67;96990.53;5138072;27;20204;-73
2023/08/25 03:58:57;;;;;;;5.40;2.63;;;;;;;25.15;59.22;96984.91;5131887;27;20471;-74
2023/08/25 04:01:23;;;;;;;2.97;2.77;;;;;;;25.15;59.07;96980.34;5130848;27;20187;-75
2023/08/25 04:03:48;;;;;;;7.60;2.73;;;;;;;25.13;58.88;96981.66;5131542;27;20177;-74
2023/08/25 04:06:13;;;;;;;7.40;2.83;;;;;;;25.14;59.21;96978.72;5136671;27;20680;-75
2023/08/25 04:08:39;;;;;;;2.60;2.40;;;;;;;25.09;59.07;96970.63;5131484;27;20199;-76
2023/08/25 04:11:04;;;;;;;6.40;2.50;;;;;;;25.05;59.08;96966.81;5131436;27;20233;-74
2023/08/25 04:13:30;;;;;;;5.83;2.60;;;;;;;25.06;59.04;96964.97;5133317;27;20705;-75
2023/08/25 04:15:57;;;;;;;8.50;2.70;;;;;;;25.08;58.85;96960.97;5139563;27;20222;-76
2023/08/25 04:18:23;;;;;;;4.10;3.00;;;;;;;25.05;58.75;96963.34;5141338;27;20255;-76
2023/08/25 04:20:48;;;;;;;11.10;2.97;;;;;;;24.96;59.66;96966.47;5145129;27;20421;-75
2023/08/25 04:23:14;;;;;;;4.30;2.93;;;;;;;24.94;59.88;96952.53;5136390;27;20810;-75
2023/08/25 04:25:39;;;;;;;4.30;2.80;;;;;;;24.94;59.54;96957.88;5131301;27;20287;-74
2023/08/25 04:28:05;;;;;;;7.43;2.60;;;;;;;24.95;59.92;96950.63;5137970;27;20648;-75
2023/08/25 04:30:30;;;;;;;5.70;3.03;;;;;;;24.89;59.39;96949.78;5139980;27;20184;-75
2023/08/25 04:32:56;;;;;;;4.00;2.93;;;;;;;24.90;59.91;96951.41;5130638;27;20275;-74
2023/08/25 04:35:22;;;;;;;4.23;2.80;;;;;;;24.91;59.90;96949.50;5124082;27;20204;-74
2023/08/25 04:37:48;;;;;;;12.77;3.00;;;;;;;24.89;59.66;96939.06;5131215;27;20560;-76
2023/08/25 04:40:14;;;;;;;5.30;2.40;;;;;;;24.88;59.70;96942.00;5135624;27;20562;-75
2023/08/25 04:42:40;;;;;;;5.27;2.47;;;;;;;24.87;59.74;96949.22;5131414;27;20418;-76
2023/08/25 04:45:07;;;;;;;4.20;2.67;;;;;;;24.73;59.90;96946.13;5131121;27;20441;-74
2023/08/25 04:47:32;;;;;;;7.50;2.83;;;;;;;24.73;59.70;96929.22;5103438;27;20429;-74
2023/08/25 04:50:02;;;;;;;3.90;2.83;;;;;;;24.75;59.49;96927.09;5134032;27;20453;-74
2023/08/25 04:52:27;;;;;;;3.80;2.80;;;;;;;24.79;59.46;96917.50;5126857;27;20183;-74
2023/08/25 04:54:53;;;;;;;3.27;2.60;;;;;;;24.78;59.66;96931.97;5127306;27;20458;-73
2023/08/25 04:57:18;;;;;;;4.00;3.20;;;;;;;24.77;59.42;96925.78;5129493;27;20212;-73
2023/08/25 04:59:43;;;;;;;4.80;3.50;;;;;;;24.79;59.64;96923.66;5138987;27;20176;-74
2023/08/25 05:02:09;;;;;;;7.57;3.17;;;;;;;24.80;59.05;96929.84;5130686;27;20661;-73
2023/08/25 05:04:34;;;;;;;8.13;2.87;;;;;;;24.81;59.39;96929.59;5114625;27;20236;-74
2023/08/25 05:07:00;;;;;;;5.00;3.00;;;;;;;24.83;59.41;96930.16;5136303;27;20253;-76
2023/08/25 05:09:25;;;;;;;3.17;2.80;;;;;;;24.89;59.31;96917.63;5138499;27;20291;-75
2023/08/25 05:11:51;;;;;;;5.50;2.47;;;;;;;24.93;58.89;96908.03;5132373;27;20293;-73
2023/08/25 05:14:16;;;;;;;6.27;3.13;;;;;;;24.95;59.30;96910.44;5151941;27;20204;-75
2023/08/25 05:16:42;;;;;;;6.40;2.53;;;;;;;24.99;59.12;96911.56;5134238;27;20204;-76
2023/08/25 05:19:09;;;;;;;9.07;2.70;;;;;;;25.03;59.62;96909.97;5151314;27;20177;-76
2023/08/25 05:21:35;;;;;;;10.23;3.20;;;;;;;25.09;58.96;96900.09;5153807;27;20727;-74
2023/08/25 05:24:16;;;;;;;4.70;3.13;;;;;;;25.15;59.15;96901.78;5135136;27;20501;-76
2023/08/25 05:26:43;;;;;;;6.60;2.60;;;;;;;25.20;58.89;96906.38;5140010;27;20202;-75
2023/08/25 05:29:08;;;;;;;5.53;2.43;;;;;;;25.27;58.55;96915.03;5133387;27;20452;-75
2023/08/25 05:31:34;;;;;;;6.80;2.90;;;;;;;25.33;58.19;96913.22;5127941;27;20427;-74
2023/08/25 05:33:59;;;;;;;5.07;2.73;;;;;;;25.40;58.39;96916.50;5145229;27;20200;-76
2023/08/25 05:36:25;;;;;;;4.20;2.80;;;;;;;25.47;58.22;96919.00;5130829;27;20197;-75
2023/08/25 05:38:50;;;;;;;6.40;2.80;;;;;;;25.47;58.15;96922.47;5137144;27;20697;-75
2023/08/25 05:41:16;;;;;;;10.43;3.33;;;;;;;25.54;58.23;96933.81;5138748;27;20673;-75
2023/08/25 05:43:41;;;;;;;2.90;2.60;;;;;;;25.57;58.00;96941.34;5135686;27;20212;-74
2023/08/25 05:46:07;;;;;;;8.20;3.00;;;;;;;25.64;57.71;96940.31;5124321;27;20211;-73
2023/08/25 05:48:32;;;;;;;7.37;3.13;;;;;;;25.71;57.34;96954.31;5129558;27;20610;-74
2023/08/25 05:50:57;;;;;;;4.63;3.00;;;;;;;25.78;57.45;96971.03;5143666;27;20665;-76
2023/08/25 05:53:23;;;;;;;5.40;2.80;;;;;;;25.83;57.40;96979.13;5133043;27;20240;-75
2023/08/25 05:55:49;;;;;;;5.33;3.07;;;;;;;25.89;57.39;96996.88;5146259;27;20235;-75
2023/08/25 05:58:15;;;;;;;6.70;2.83;;;;;;;25.95;58.28;96997.72;5129973;27;20229;-75
2023/08/25 06:00:41;;;;;;;11.50;3.30;;;;;;;25.98;58.17;97015.19;5127593;27;20489;-74
2023/08/25 06:03:08;;;;;;;3.13;2.77;;;;;;;25.99;57.98;97008.75;5131568;27;20184;-74
2023/08/25 06:05:33;;;;;;;11.50;3.03;;;;;;;26.01;58.27;97015.50;5124273;27;20453;-75
2023/08/25 06:07:59;;;;;;;4.57;2.67;;;;;;;26.03;58.17;97015.22;5141544;27;20421;-75
2023/08/25 06:10:25;;;;;;;7.20;3.10;;;;;;;26.04;58.27;97031.06;5132957;27;20259;-76
2023/08/25 06:12:50;;;;;;;4.60;2.93;;;;;;;26.03;57.92;97063.56;5146711;27;20583;-74
2023/08/25 06:15:16;;;;;;;8.20;2.73;;;;;;;26.00;57.72;97187.53;5129361;27;20287;-74
2023/08/25 06:17:41;;;;;;;11.27;2.93;;;;;;;25.95;58.08;97217.03;5149048;27;20835;-75
2023/08/25 06:20:08;;;;;;;9.70;3.13;;;;;;;25.84;58.36;97227.63;5135733;27;20185;-75
2023/08/25 06:22:33;;;;;;;13.77;3.17;;;;;;;25.71;58.45;97226.16;5129636;27;20183;-74
2023/08/25 06:24:58;;;;;;;3.70;3.03;;;;;;;25.63;57.52;97240.00;5129958;27;20445;-75
2023/08/25 06:27:24;;;;;;;4.30;3.10;;;;;;;25.55;57.57;97227.84;5138944;27;20168;-75
2023/08/25 06:29:50;;;;;;;10.30;3.20;;;;;;;25.58;57.80;97230.00;5126760;27;20189;-76
2023/08/25 06:32:15;;;;;;;5.10;2.70;;;;;;;25.52;57.54;97231.00;5118665;27;20263;-76
2023/08/25 06:34:41;;;;;;;4.73;2.70;;;;;;;25.53;57.83;97246.06;5130257;27;20188;-75
2023/08/25 06:37:06;;;;;;;5.17;2.70;;;;;;;25.53;57.85;97245.22;5119295;28;20200;-73
2023/08/25 06:39:32;;;;;;;7.03;3.10;;;;;;;25.52;57.81;97235.56;5127656;27;20207;-73
2023/08/25 06:41:57;;;;;;;4.70;2.90;;;;;;;25.50;58.17;97217.03;5129491;27;20203;-75
2023/08/25 06:44:23;;;;;;;5.43;3.37;;;;;;;25.48;57.98;97208.41;5129502;27;20260;-74
2023/08/25 06:46:48;;;;;;;4.57;3.03;;;;;;;25.47;58.30;97187.22;5128900;27;20283;-73
2023/08/25 06:49:14;;;;;;;4.73;2.93;;;;;;;25.44;58.49;97204.63;5132095;27;20220;-73
2023/08/25 06:51:39;;;;;;;6.13;2.90;;;;;;;25.40;58.88;97216.88;5122271;27;20185;-75
2023/08/25 06:54:05;;;;;;;6.23;3.00;;;;;;;25.32;59.56;97230.72;5124445;27;20320;-75
2023/08/25 06:56:30;;;;;;;6.23;2.90;;;;;;;25.31;60.18;97211.13;5133016;27;20269;-75
2023/08/25 06:58:55;;;;;;;6.00;3.30;;;;;;;25.23;60.31;97201.63;5132875;27;20204;-75
2023/08/25 07:01:21;;;;;;;6.43;3.60;;;;;;;25.19;60.43;97184.44;5140019;27;20671;-75
2023/08/25 07:03:47;;;;;;;5.20;3.03;;;;;;;25.12;61.46;97189.97;5132775;27;20619;-76
2023/08/25 07:06:13;;;;;;;4.33;3.20;;;;;;;25.05;61.81;97194.66;5132375;27;20192;-74
2023/08/25 07:08:38;;;;;;;4.90;3.10;;;;;;;25.00;62.15;97200.78;5142350;27;20437;-75
2023/08/25 07:11:04;;;;;;;5.37;3.33;;;;;;;24.97;62.02;97182.50;5148563;27;20177;-75
2023/08/25 07:13:31;;;;;;;4.07;2.87;;;;;;;24.93;62.41;97189.44;5141012;27;20184;-75
2023/08/25 07:15:56;;;;;;;6.63;2.63;;;;;;;24.89;62.63;97184.81;5136240;27;20264;-74
2023/08/25 07:18:24;;;;;;;2.80;2.60;;;;;;;24.90;62.84;97205.16;5147648;27;20836;-75
2023/08/25 07:20:50;;;;;;;6.70;3.43;;;;;;;24.83;62.75;97241.00;5114403;27;20216;-75
2023/08/25 07:23:15;;;;;;;8.47;3.43;;;;;;;24.77;63.43;97278.66;5147478;27;20425;-75
2023/08/25 07:25:43;;;;;;;5.40;3.10;;;;;;;24.75;63.62;97286.94;5133710;27;20541;-74
2023/08/25 07:28:10;;;;;;;7.13;3.50;;;;;;;24.73;64.03;97264.94;5140595;27;20632;-75
2023/08/25 07:30:37;;;;;;;6.60;3.23;;;;;;;24.74;64.39;97295.22;5140054;27;20453;-75
2023/08/25 07:33:02;;;;;;;7.10;3.73;;;;;;;24.73;64.31;97302.44;5145191;27;20460;-76
2023/08/25 07:35:28;;;;;;;17.63;3.87;;;;;;;24.68;64.27;97321.91;5142726;27;20485;-76
2023/08/25 07:37:54;;;;;;;4.13;3.20;;;;;;;24.62;64.23;97332.78;5143393;27;20453;-76
2023/08/25 07:40:19;;;;;;;7.60;3.07;;;;;;;24.60;64.07;97324.94;5137442;27;20172;-76
2023/08/25 07:42:45;;;;;;;5.60;3.10;;;;;;;24.63;64.35;97321.81;5135762;27;20182;-74
2023/08/25 07:45:10;;;;;;;6.93;4.17;;;;;;;24.57;64.71;97338.84;5152626;27;20236;-74
2023/08/25 07:47:36;;;;;;;4.67;3.37;;;;;;;24.54;65.10;97358.06;5143000;27;20271;-74
2023/08/25 07:50:03;;;;;;;8.83;3.47;;;;;;;24.57;65.23;97392.44;5132286;27;20179;-73
2023/08/25 07:52:28;;;;;;;5.80;3.47;;;;;;;24.51;64.90;97388.81;5104118;27;20226;-77
2023/08/25 07:54:54;;;;;;;6.07;2.70;;;;;;;24.45;64.62;97370.19;5134963;27;20989;-77
2023/08/25 07:57:19;;;;;;;4.70;2.77;;;;;;;24.52;64.78;97360.16;5137314;27;20173;-75
2023/08/25 07:59:45;;;;;;;5.87;2.80;;;;;;;24.50;64.01;97346.19;5132936;27;20180;-75
2023/08/25 08:02:11;;;;;;;11.60;3.30;;;;;;;24.44;64.32;97349.84;5144726;27;20179;-76
2023/08/25 08:04:38;;;;;;;4.73;2.63;;;;;;;24.47;64.59;97368.09;5134268;27;20558;-74
2023/08/25 08:07:04;;;;;;;3.60;3.03;;;;;;;24.50;64.69;97360.41;5139939;27;20927;-76
2023/08/25 08:09:31;;;;;;;9.57;2.77;;;;;;;24.44;64.32;97365.91;5139586;27;20462;-76
2023/08/25 08:11:57;;;;;;;4.67;2.57;;;;;;;24.49;64.11;97353.44;5140279;27;20831;-74
2023/08/25 08:14:23;;;;;;;3.27;2.70;;;;;;;24.51;64.61;97337.13;5123030;27;20450;-75
2023/08/25 08:16:48;;;;;;;6.63;2.70;;;;;;;24.36;65.14;97375.13;5149838;27;20424;-75
2023/08/25 08:19:14;;;;;;;9.33;3.37;;;;;;;24.37;65.19;97366.06;5146433;27;20173;-75
2023/08/25 08:21:40;;;;;;;4.67;3.00;;;;;;;24.44;65.11;97365.91;5130188;27;20653;-75
2023/08/25 08:24:06;;;;;;;6.00;3.20;;;;;;;24.42;65.12;97368.00;5117960;27;20171;-75
2023/08/25 08:26:31;;;;;;;8.30;2.77;;;;;;;24.38;65.41;97362.31;5135301;27;20196;-76
2023/08/25 08:28:56;;;;;;;3.40;2.70;;;;;;;24.41;65.42;97361.03;5139189;27;20192;-73
2023/08/25 08:31:22;;;;;;;11.73;3.13;;;;;;;24.42;65.15;97346.59;5125752;27;20173;-73
2023/08/25 08:33:47;;;;;;;3.77;3.20;;;;;;;24.34;65.43;97319.13;5140623;27;20207;-74
2023/08/25 08:36:17;;;;;;;5.80;3.23;;;;;;;24.34;65.70;97273.59;5137438;27;20192;-75
2023/08/25 08:38:42;;;;;;;5.00;3.33;;;;;;;24.39;65.92;97241.56;5139238;27;20179;-74
2023/08/25 08:41:09;;;;;;;8.53;3.10;;;;;;;24.37;65.23;97249.03;5130990;27;20991;-74
2023/08/25 08:43:38;;;;;;;6.60;3.60;;;;;;;24.35;65.09;97229.69;5142348;27;20258;-74
2023/08/25 08:46:04;;;;;;;5.60;3.43;;;;;;;24.38;65.90;97215.84;5142673;27;20441;-75
2023/08/25 08:48:31;;;;;;;4.80;3.10;;;;;;;24.37;65.93;97167.88;5151158;27;20428;-74
2023/08/25 08:50:57;;;;;;;13.00;3.83;;;;;;;24.41;66.46;97162.84;5142365;27;20422;-75
2023/08/25 08:53:23;;;;;;;7.50;3.63;;;;;;;24.44;67.11;97152.47;5142955;27;20412;-75
2023/08/25 08:55:51;;;;;;;6.90;3.70;;;;;;;24.51;67.59;97155.78;5123378;27;20689;-74
2023/08/25 08:58:16;;;;;;;8.53;4.20;;;;;;;24.55;68.08;97156.13;5130723;27;20471;-75
2023/08/25 09:00:42;;;;;;;5.80;3.80;;;;;;;24.60;67.92;97145.47;5110306;27;22123;-75
2023/08/25 09:03:10;;;;;;;8.40;3.77;;;;;;;24.63;67.69;97150.34;5111698;27;20174;-74
2023/08/25 09:05:36;;;;;;;6.90;3.23;;;;;;;24.52;66.07;97170.78;5120716;27;20794;-73
2023/08/25 09:08:07;;;;;;;4.67;3.17;;;;;;;24.51;66.36;97193.28;5128640;27;20424;-76
2023/08/25 09:10:33;;;;;;;3.30;2.90;;;;;;;24.41;66.21;97189.63;5143464;27;20183;-74
2023/08/25 09:12:58;;;;;;;5.40;3.53;;;;;;;24.18;66.63;97175.34;5138270;27;20413;-75
2023/08/25 09:15:28;;;;;;;7.23;3.80;;;;;;;24.22;66.72;97160.38;5138267;27;20283;-75
2023/08/25 09:18:01;;;;;;;7.40;3.47;;;;;;;24.23;66.72;97156.66;5131301;27;20203;-78
2023/08/25 09:20:28;;;;;;;4.60;3.50;;;;;;;24.16;67.08;97145.31;5140384;27;20397;-75
2023/08/25 09:22:57;;;;;;;6.30;3.73;;;;;;;24.24;67.06;97136.88;5111408;27;20425;-72
2023/08/25 09:25:23;;;;;;;5.60;3.30;;;;;;;24.00;68.22;97133.53;5138167;27;20462;-76
2023/08/25 09:27:55;;;;;;;6.43;3.30;;;;;;;24.17;68.22;97125.53;5139174;27;20425;-76
2023/08/25 09:30:21;;;;;;;5.37;3.40;;;;;;;24.26;67.81;97110.66;5140931;27;20448;-73
2023/08/25 09:32:46;;;;;;;4.67;3.30;;;;;;;24.05;68.51;97091.59;5122302;27;20422;-75
2023/08/25 09:35:14;;;;;;;6.77;3.57;;;;;;;24.20;68.51;97095.56;5141033;27;20265;-75
2023/08/25 09:37:41;;;;;;;3.87;3.13;;;;;;;24.39;67.89;97098.81;5138267;27;20198;-76
2023/08/25 09:40:10;;;;;;;8.30;3.70;;;;;;;24.41;68.16;97104.75;5129592;27;20445;-75
2023/08/25 09:42:36;;;;;;;4.63;3.60;;;;;;;24.57;68.05;97100.44;5133647;27;20421;-74
2023/08/25 09:45:01;;;;;;;10.03;3.47;;;;;;;24.63;66.74;97104.00;5120895;27;21001;-75
2023/08/25 09:47:27;;;;;;;8.30;3.60;;;;;;;24.69;66.48;97103.03;5111165;27;20173;-76
2023/08/25 09:49:52;;;;;;;4.47;3.30;;;;;;;24.82;66.58;97091.97;5120702;27;20262;-74
2023/08/25 09:52:19;;;;;;;4.90;3.83;;;;;;;24.90;66.25;97096.09;5141786;27;20552;-75
2023/08/25 09:54:44;;;;;;;8.17;3.17;;;;;;;25.18;64.87;97099.69;5122998;27;20279;-75
2023/08/25 09:57:10;;;;;;;3.60;2.93;;;;;;;25.29;64.46;97106.78;5138050;27;20509;-76
2023/08/25 09:59:36;;;;;;;3.27;2.80;;;;;;;25.40;64.28;97109.59;5099126;28;20180;-76
2023/08/25 10:02:01;;;;;;;5.77;3.00;;;;;;;25.51;63.56;97116.72;5115747;27;20548;-75
2023/08/25 10:04:27;;;;;;;7.77;3.10;;;;;;;25.61;63.31;97114.16;5106326;27;20304;-74
2023/08/25 10:06:53;;;;;;;5.00;2.83;;;;;;;25.61;63.07;97122.19;5130490;27;20196;-76
2023/08/25 10:09:20;;;;;;;3.97;2.70;;;;;;;25.57;62.67;97125.63;5126921;27;20425;-76
2023/08/25 10:11:48;;;;;;;4.27;2.90;;;;;;;25.53;63.29;97122.66;5124839;27;20959;-76
2023/08/25 10:14:14;;;;;;;3.60;2.93;;;;;;;25.52;63.82;97112.97;5111301;28;20445;-75
2023/08/25 10:16:50;;;;;;;4.17;3.00;;;;;;;25.66;63.69;97124.13;5129244;27;20442;-73
2023/08/25 10:19:20;;;;;;;4.83;3.20;;;;;;;25.82;63.63;97114.38;5119673;28;20176;-75
2023/08/25 10:21:49;;;;;;;3.50;3.20;;;;;;;25.91;63.35;97110.16;5111110;28;20434;-74
2023/08/25 10:24:15;;;;;;;4.27;3.50;;;;;;;26.03;63.12;97101.94;5121404;27;20709;-75
2023/08/25 10:26:42;;;;;;;9.70;3.53;;;;;;;26.09;62.46;97102.78;5148788;27;20448;-73
2023/08/25 10:29:08;;;;;;;3.10;2.80;;;;;;;26.00;61.91;97123.13;5115369;27;20193;-78
2023/08/25 10:31:33;;;;;;;3.70;3.20;;;;;;;25.80;61.99;97111.13;5129788;27;20956;-73
2023/08/25 10:33:59;;;;;;;5.03;3.00;;;;;;;25.92;61.88;97127.88;5131538;27;20268;-74
2023/08/25 10:36:25;;;;;;;6.60;2.60;;;;;;;26.00;61.90;97139.22;5138272;27;20195;-74
2023/08/25 10:38:59;;;;;;;3.47;2.97;;;;;;;25.79;62.21;97139.03;5144937;27;20482;-75
2023/08/25 10:41:27;;;;;;;3.10;2.80;;;;;;;25.92;62.40;97149.38;5141672;27;20206;-74
2023/08/25 10:43:54;;;;;;;7.37;3.07;;;;;;;25.86;61.83;97131.56;5144516;27;20819;-75
2023/08/25 10:46:22;;;;;;;2.60;2.40;;;;;;;25.91;62.39;97152.28;5133008;27;20447;-75
2023/08/25 10:48:48;;;;;;;3.97;3.07;;;;;;;25.75;62.45;97156.69;5105752;27;21035;-75
2023/08/25 10:51:20;;;;;;;6.47;3.20;;;;;;;25.74;62.37;97153.22;5114510;27;20456;-74
2023/08/25 10:53:49;;;;;;;7.20;2.93;;;;;;;25.80;61.87;97143.34;5141306;27;20426;-75
2023/08/25 10:56:18;;;;;;;4.50;2.83;;;;;;;25.84;62.18;97141.75;5124149;27;20491;-76
2023/08/25 10:58:56;;;;;;;5.33;2.80;;;;;;;25.94;61.93;97137.56;5132738;27;20428;-77
2023/08/25 11:01:37;;;;;;;7.87;3.47;;;;;;;25.97;61.15;97145.09;5104311;27;20429;-76
2023/08/25 11:04:12;;;;;;;3.20;2.90;;;;;;;26.06;60.63;97140.91;5130586;27;20414;-76
2023/08/25 11:06:57;;;;;;;8.27;3.33;;;;;;;26.13;60.32;97128.09;5127493;27;20532;-74
2023/08/25 11:09:26;;;;;;;5.10;3.20;;;;;;;26.26;60.02;97126.88;5121105;27;20518;-74
2023/08/25 11:12:06;;;;;;;5.00;3.10;;;;;;;26.26;59.74;97118.00;5136510;27;20420;-76
2023/08/25 11:14:34;;;;;;;3.97;3.00;;;;;;;26.28;59.84;97111.31;5132547;27;20533;-76
2023/08/25 11:17:02;;;;;;;5.70;2.97;;;;;;;26.34;59.66;97102.22;5131155;27;20437;-75
2023/08/25 11:19:40;;;;;;;3.27;2.83;;;;;;;26.40;59.29;97115.72;5116838;27;20421;-76
2023/08/25 11:22:09;;;;;;;5.10;3.37;;;;;;;26.40;59.78;97111.13;5128934;27;20478;-73
2023/08/25 11:24:34;;;;;;;4.07;3.43;;;;;;;26.49;59.93;97108.78;5144757;27;20950;-76
2023/08/25 11:27:05;;;;;;;3.17;2.87;;;;;;;26.59;60.05;97124.19;5151365;27;20524;-74
2023/08/25 11:29:31;;;;;;;4.70;3.70;;;;;;;26.61;60.21;97125.53;5132249;27;20199;-76
2023/08/25 11:31:56;;;;;;;3.33;3.10;;;;;;;26.74;60.03;97129.63;5139834;27;20765;-76